createdAt,value
2024-02-03T00:01:45.902Z,84425.88
2024-02-03T00:04:14.501Z,84420.34
2024-02-03T00:06:42.882Z,84419.19
2024-02-03T00:09:10.704Z,84437.41
2024-02-03T00:11:39.085Z,84442.44
2024-02-03T00:14:06.696Z,84439.47
2024-02-03T00:16:34.471Z,84442.34
2024-02-03T00:19:02.548Z,84431.31
2024-02-03T00:21:30.979Z,84433.88
2024-02-03T00:23:58.858Z,84411.06
2024-02-03T00:26:26.592Z,84421.88
2024-02-03T00:28:55.770Z,84428.16
2024-02-03T00:31:23.216Z,84428.22
2024-02-03T00:33:51.518Z,84433.31
2024-02-03T00:36:26.022Z,84427.06
2024-02-03T00:38:54.265Z,84437.69
2024-02-03T00:41:22.037Z,84432.44
2024-02-03T00:43:49.874Z,84441.06
2024-02-03T00:46:18.483Z,84432.38
2024-02-03T00:48:46.322Z,84430.88
2024-02-03T00:51:14.050Z,84419.22
2024-02-03T00:53:43.026Z,84405.38
2024-02-03T00:56:12.315Z,84431.56
2024-02-03T00:58:41.273Z,84430.50
2024-02-03T01:01:09.506Z,84424.69
2024-02-03T01:03:37.459Z,84445.22
2024-02-03T01:06:05.831Z,84441.97
2024-02-03T01:08:33.445Z,84438.28
2024-02-03T01:11:00.951Z,84449.25
2024-02-03T01:13:28.688Z,84448.50
2024-02-03T01:15:56.940Z,84446.44
2024-02-03T01:18:24.924Z,84447.31
2024-02-03T01:20:53.492Z,84444.28
2024-02-03T01:23:21.411Z,84451.31
2024-02-03T01:25:50.894Z,84453.66
2024-02-03T01:28:18.473Z,84439.03
2024-02-03T01:30:46.128Z,84447.88
2024-02-03T01:33:13.992Z,84452.66
2024-02-03T01:35:41.700Z,84455.88
2024-02-03T01:38:09.251Z,84453.50
2024-02-03T01:40:39.100Z,84459.16
2024-02-03T01:43:09.479Z,84472.75
2024-02-03T01:45:37.390Z,84462.84
2024-02-03T01:48:05.923Z,84455.84
2024-02-03T01:50:34.323Z,84459.88
2024-02-03T01:53:04.675Z,84454.06
2024-02-03T01:55:33.299Z,84459.47
2024-02-03T01:58:02.631Z,84456.91
2024-02-03T02:00:32.232Z,84452.88
2024-02-03T02:03:00.161Z,84443.22
2024-02-03T02:05:30.041Z,84445.78
2024-02-03T02:07:58.036Z,84458.53
2024-02-03T02:10:26.031Z,84447.94
2024-02-03T02:12:54.177Z,84452.69
2024-02-03T02:15:22.018Z,84448.00
2024-02-03T02:17:50.682Z,84442.81
2024-02-03T02:20:18.652Z,84441.66
2024-02-03T02:22:46.323Z,84443.19
2024-02-03T02:25:14.147Z,84439.25
2024-02-03T02:27:42.025Z,84439.63
2024-02-03T02:30:10.017Z,84445.41
2024-02-03T02:32:38.068Z,84447.44
2024-02-03T02:35:06.133Z,84442.66
2024-02-03T02:37:34.763Z,84456.38
2024-02-03T02:40:02.801Z,84448.31
2024-02-03T02:42:30.753Z,84450.09
2024-02-03T02:44:58.523Z,84449.41
2024-02-03T02:47:26.206Z,84444.66
2024-02-03T02:49:54.068Z,84443.34
2024-02-03T02:52:21.833Z,84439.38
2024-02-03T02:54:49.584Z,84425.81
2024-02-03T02:57:17.081Z,84437.13
2024-02-03T02:59:44.667Z,84440.31
2024-02-03T03:02:12.593Z,84449.09
2024-02-03T03:04:40.091Z,84446.56
2024-02-03T03:07:07.797Z,84453.56
2024-02-03T03:09:36.160Z,84451.00
2024-02-03T03:12:04.206Z,84458.25
2024-02-03T03:14:32.302Z,84459.84
2024-02-03T03:17:00.609Z,84463.44
2024-02-03T03:19:28.182Z,84471.38
2024-02-03T03:21:56.055Z,84458.47
2024-02-03T03:24:23.726Z,84461.03
2024-02-03T03:26:51.554Z,84474.44
2024-02-03T03:29:19.131Z,84473.63
2024-02-03T03:31:46.743Z,84466.69
2024-02-03T03:34:14.499Z,84462.38
2024-02-03T03:36:42.263Z,84470.00
2024-02-03T03:39:10.568Z,84449.03
2024-02-03T03:41:38.115Z,84451.16
2024-02-03T03:44:05.841Z,84472.53
2024-02-03T03:46:33.623Z,84468.66
2024-02-03T03:49:01.557Z,84472.84
2024-02-03T03:51:29.414Z,84470.00
2024-02-03T03:53:57.638Z,84475.22
2024-02-03T03:56:25.121Z,84475.97
2024-02-03T03:58:52.839Z,84492.88
2024-02-03T04:01:20.386Z,84506.47
2024-02-03T04:03:48.269Z,84501.00
2024-02-03T04:06:16.109Z,84512.72
2024-02-03T04:08:43.856Z,84504.25
2024-02-03T04:11:11.490Z,84507.53
2024-02-03T04:13:41.386Z,84525.47
2024-02-03T04:16:09.499Z,84516.69
2024-02-03T04:18:37.562Z,84521.38
2024-02-03T04:21:05.725Z,84532.34
2024-02-03T04:23:33.463Z,84511.38
2024-02-03T04:26:01.262Z,84534.06
2024-02-03T04:28:29.144Z,84544.28
2024-02-03T04:31:00.015Z,84537.28
2024-02-03T04:33:27.807Z,84544.16
2024-02-03T04:35:55.612Z,84555.56
2024-02-03T04:38:23.549Z,84556.00
2024-02-03T04:40:51.195Z,84555.78
2024-02-03T04:43:19.311Z,84561.53
2024-02-03T04:45:46.878Z,84558.38
2024-02-03T04:48:14.678Z,84562.91
2024-02-03T04:50:42.702Z,84565.94
2024-02-03T04:53:10.675Z,84567.38
2024-02-03T04:55:38.040Z,84562.88
2024-02-03T04:58:05.697Z,84573.72
2024-02-03T05:00:33.352Z,84581.34
2024-02-03T05:03:01.146Z,84576.75
2024-02-03T05:05:29.269Z,84581.94
2024-02-03T05:07:56.919Z,84578.34
2024-02-03T05:10:24.669Z,84585.19
2024-02-03T05:12:52.390Z,84572.72
2024-02-03T05:15:20.253Z,84574.66
2024-02-03T05:17:48.071Z,84584.84
2024-02-03T05:20:16.244Z,84593.53
2024-02-03T05:22:44.075Z,84597.63
2024-02-03T05:25:12.668Z,84593.84
2024-02-03T05:27:40.536Z,84600.63
2024-02-03T05:30:09.015Z,84583.38
2024-02-03T05:32:36.518Z,84597.84
2024-02-03T05:35:04.418Z,84592.84
2024-02-03T05:37:32.402Z,84594.66
2024-02-03T05:40:00.383Z,84599.06
2024-02-03T05:42:31.491Z,84609.16
2024-02-03T05:45:00.069Z,84610.28
2024-02-03T05:47:27.969Z,84611.19
2024-02-03T05:49:55.554Z,84608.38
2024-02-03T05:52:23.340Z,84604.75
2024-02-03T05:54:51.607Z,84615.44
2024-02-03T05:57:19.466Z,84605.28
2024-02-03T05:59:51.267Z,84607.28
2024-02-03T06:02:19.891Z,84602.00
2024-02-03T06:04:48.351Z,84607.34
2024-02-03T06:07:17.972Z,84599.50
2024-02-03T06:09:46.273Z,84612.03
2024-02-03T06:12:13.927Z,84613.59
2024-02-03T06:14:42.549Z,84615.59
2024-02-03T06:17:10.147Z,84610.56
2024-02-03T06:19:42.372Z,84609.88
2024-02-03T06:22:12.489Z,84610.66
2024-02-03T06:24:40.445Z,84617.25
2024-02-03T06:27:10.363Z,84619.78
2024-02-03T06:29:38.084Z,84626.44
2024-02-03T06:32:05.928Z,84604.78
2024-02-03T06:34:33.842Z,84618.41
2024-02-03T06:37:02.080Z,84611.03
2024-02-03T06:39:30.327Z,84611.75
2024-02-03T06:41:58.570Z,84615.41
2024-02-03T06:44:26.484Z,84606.19
2024-02-03T06:46:54.583Z,84623.81
2024-02-03T06:49:22.371Z,84618.28
2024-02-03T06:51:50.352Z,84616.78
2024-02-03T06:54:18.012Z,84617.84
2024-02-03T06:56:45.697Z,84620.38
2024-02-03T06:59:14.364Z,84614.44
2024-02-03T07:01:41.934Z,84590.53
2024-02-03T07:04:09.798Z,84611.44
2024-02-03T07:06:37.500Z,84536.44
2024-02-03T07:09:05.096Z,84610.13
2024-02-03T07:11:33.017Z,84607.50
2024-02-03T07:14:00.727Z,84611.13
2024-02-03T07:16:28.965Z,84606.16
2024-02-03T07:18:56.841Z,84615.56
2024-02-03T07:21:25.412Z,84610.69
2024-02-03T07:23:52.805Z,84620.94
2024-02-03T07:26:20.522Z,84623.00
2024-02-03T07:28:49.932Z,84617.38
2024-02-03T07:31:28.691Z,84621.31
2024-02-03T07:33:59.425Z,84618.53
2024-02-03T07:36:27.255Z,84617.47
2024-02-03T07:38:55.673Z,84622.84
2024-02-03T07:41:23.257Z,84624.88
2024-02-03T07:43:50.618Z,84631.09
2024-02-03T07:46:18.310Z,84618.63
2024-02-03T07:48:46.649Z,84572.91
2024-02-03T07:51:14.678Z,84631.06
2024-02-03T07:53:43.451Z,84617.09
2024-02-03T07:56:12.134Z,84631.25
2024-02-03T07:58:40.110Z,84629.13
2024-02-03T08:01:08.042Z,84626.63
2024-02-03T08:03:36.013Z,84623.84
2024-02-03T08:06:04.732Z,84605.81
2024-02-03T08:08:33.336Z,84618.72
2024-02-03T08:11:01.196Z,84620.34
2024-02-03T08:13:29.188Z,84624.00
2024-02-03T08:15:57.725Z,84623.81
2024-02-03T08:18:25.414Z,84624.09
2024-02-03T08:20:52.944Z,84622.50
2024-02-03T08:23:20.626Z,84618.88
2024-02-03T08:25:48.079Z,84616.25
2024-02-03T08:28:15.952Z,84612.59
2024-02-03T08:30:43.936Z,84619.31
2024-02-03T08:33:14.200Z,84620.25
2024-02-03T08:35:42.460Z,84620.00
2024-02-03T08:38:10.665Z,84614.59
2024-02-03T08:40:38.575Z,84617.91
2024-02-03T08:43:06.731Z,84610.81
2024-02-03T08:45:34.149Z,84618.53
2024-02-03T08:48:02.188Z,84618.03
2024-02-03T08:50:30.309Z,84619.56
2024-02-03T08:52:58.701Z,84610.22
2024-02-03T08:55:26.000Z,84598.72
2024-02-03T08:57:53.793Z,84602.97
2024-02-03T09:00:22.261Z,84598.63
2024-02-03T09:02:49.853Z,84593.22
2024-02-03T09:05:17.940Z,84598.88
2024-02-03T09:07:46.633Z,84592.38
2024-02-03T09:10:14.386Z,84598.13
2024-02-03T09:12:42.284Z,84593.75
2024-02-03T09:15:10.653Z,84584.41
2024-02-03T09:17:38.574Z,84594.56
2024-02-03T09:20:07.627Z,84587.69
2024-02-03T09:22:35.743Z,84592.72
2024-02-03T09:25:03.207Z,84591.34
2024-02-03T09:27:30.894Z,84580.75
2024-02-03T09:29:58.526Z,84565.16
2024-02-03T09:32:30.640Z,84580.47
2024-02-03T09:34:58.834Z,84573.13
2024-02-03T09:39:58.519Z,84565.16
2024-02-03T09:42:25.953Z,84559.41
2024-02-03T09:44:54.210Z,84558.06
2024-02-03T09:47:21.871Z,84559.66
2024-02-03T09:49:50.155Z,84565.03
2024-02-03T09:52:19.430Z,84578.94
2024-02-03T09:54:47.948Z,84569.91
2024-02-03T09:57:16.112Z,84566.22
2024-02-03T09:59:43.675Z,84566.69
2024-02-03T10:02:11.454Z,84563.88
2024-02-03T10:04:40.905Z,84570.13
2024-02-03T10:07:08.894Z,84565.00
2024-02-03T10:12:18.908Z,84555.09
2024-02-03T10:14:47.855Z,84561.91
2024-02-03T10:17:22.813Z,84566.41
2024-02-03T10:19:50.782Z,84558.13
2024-02-03T10:22:18.810Z,84558.94
2024-02-03T10:24:46.536Z,84559.41
2024-02-03T10:27:14.144Z,84552.47
2024-02-03T10:29:41.604Z,84555.97
2024-02-03T10:32:10.030Z,84547.50
2024-02-03T10:34:38.719Z,84546.41
2024-02-03T10:37:06.592Z,84552.94
2024-02-03T10:39:34.300Z,84542.88
2024-02-03T10:42:03.072Z,84550.44
2024-02-03T10:44:33.218Z,84546.16
2024-02-03T10:47:03.328Z,84479.75
2024-02-03T10:49:35.302Z,84540.41
2024-02-03T10:52:10.372Z,84540.38
2024-02-03T10:54:39.825Z,84541.13
2024-02-03T10:57:12.165Z,84534.34
2024-02-03T10:59:40.285Z,84535.59
2024-02-03T11:02:25.754Z,84537.13
2024-02-03T11:04:54.022Z,84538.56
2024-02-03T11:07:32.259Z,84524.44
2024-02-03T11:10:05.137Z,84524.31
2024-02-03T11:12:36.876Z,84515.59
2024-02-03T11:15:13.953Z,84522.63
2024-02-03T11:17:45.863Z,84512.19
2024-02-03T11:20:20.963Z,84539.97
2024-02-03T11:22:56.196Z,84529.91
2024-02-03T11:25:25.656Z,84533.28
2024-02-03T11:27:53.493Z,84522.25
2024-02-03T11:30:21.679Z,84530.78
2024-02-03T11:32:49.638Z,84517.75
2024-02-03T11:35:19.011Z,84530.94
2024-02-03T11:37:47.418Z,84532.09
2024-02-03T11:40:15.594Z,84523.59
2024-02-03T11:42:46.600Z,84537.31
2024-02-03T11:45:16.380Z,84523.03
2024-02-03T11:47:44.642Z,84538.06
2024-02-03T11:50:12.247Z,84536.09
2024-02-03T11:52:46.802Z,84532.50
2024-02-03T11:55:14.727Z,84536.88
2024-02-03T11:57:44.002Z,84542.41
2024-02-03T12:00:14.895Z,84535.06
2024-02-03T12:02:43.141Z,84539.91
2024-02-03T12:05:14.375Z,84541.72
2024-02-03T12:07:43.133Z,84540.72
2024-02-03T12:10:11.229Z,84544.22
2024-02-03T12:12:41.108Z,84545.22
2024-02-03T12:15:10.540Z,84544.72
2024-02-03T12:17:39.922Z,84540.53
2024-02-03T12:20:28.112Z,84549.91
2024-02-03T12:22:58.914Z,84545.50
2024-02-03T12:25:27.476Z,84548.94
2024-02-03T12:27:55.885Z,84546.91
2024-02-03T12:30:24.089Z,84551.25
2024-02-03T12:32:51.722Z,84552.19
2024-02-03T12:35:19.538Z,84552.25
2024-02-03T12:37:47.451Z,84549.06
2024-02-03T12:40:15.165Z,84543.78
2024-02-03T12:42:43.217Z,84549.19
2024-02-03T12:45:11.174Z,84547.16
2024-02-03T12:47:43.154Z,84555.69
2024-02-03T12:50:11.785Z,84555.53
2024-02-03T12:52:39.427Z,84555.34
2024-02-03T12:55:08.816Z,84561.47
2024-02-03T12:57:36.551Z,84555.63
2024-02-03T13:00:04.181Z,84565.97
2024-02-03T13:02:32.242Z,84562.19
2024-02-03T13:05:00.401Z,84568.22
2024-02-03T13:07:28.226Z,84566.25
2024-02-03T13:09:55.923Z,84574.63
2024-02-03T13:12:24.986Z,84565.97
2024-02-03T13:14:52.641Z,84575.75
2024-02-03T13:17:21.217Z,84575.03
2024-02-03T13:19:49.063Z,84587.16
2024-02-03T13:22:17.003Z,84577.03
2024-02-03T13:24:44.922Z,84584.81
2024-02-03T13:27:13.763Z,84579.59
2024-02-03T13:29:41.486Z,84571.91
2024-02-03T13:32:09.664Z,84575.09
2024-02-03T13:34:37.480Z,84577.06
2024-02-03T13:37:05.659Z,84574.88
2024-02-03T13:39:35.502Z,84572.84
2024-02-03T13:42:05.263Z,84590.69
2024-02-03T13:44:32.613Z,84589.69
2024-02-03T13:47:00.403Z,84597.06
2024-02-03T13:49:28.458Z,84601.13
2024-02-03T13:51:56.327Z,84594.81
2024-02-03T13:54:23.720Z,84596.75
2024-02-03T13:56:51.446Z,84600.03
2024-02-03T13:59:19.381Z,84595.22
2024-02-03T14:01:47.038Z,84575.19
2024-02-03T14:04:14.702Z,84574.19
2024-02-03T14:06:43.865Z,84594.13
2024-02-03T14:09:12.040Z,84582.38
2024-02-03T14:11:50.458Z,84588.22
2024-02-03T14:14:23.663Z,84589.03
2024-02-03T14:16:51.603Z,84588.69
2024-02-03T14:19:20.083Z,84583.50
2024-02-03T14:21:48.156Z,84585.69
2024-02-03T14:24:15.872Z,84576.91
2024-02-03T14:26:44.243Z,84599.69
2024-02-03T14:29:11.758Z,84601.94
2024-02-03T14:31:39.200Z,84597.94
2024-02-03T14:34:06.643Z,84599.38
2024-02-03T14:36:34.868Z,84601.94
2024-02-03T14:39:02.382Z,84595.34
2024-02-03T14:41:29.911Z,84604.84
2024-02-03T14:43:57.431Z,84599.31
2024-02-03T14:46:25.568Z,84607.38
2024-02-03T14:48:53.729Z,84611.78
2024-02-03T14:51:21.631Z,84613.59
2024-02-03T14:53:49.441Z,84610.59
2024-02-03T14:56:17.332Z,84609.81
2024-02-03T14:58:44.991Z,84620.84
2024-02-03T15:01:12.712Z,84625.66
2024-02-03T15:03:40.778Z,84621.59
2024-02-03T15:06:08.496Z,84621.47
2024-02-03T15:08:36.470Z,84621.72
2024-02-03T15:11:04.634Z,84627.19
2024-02-03T15:13:32.136Z,84633.91
2024-02-03T15:15:59.986Z,84632.91
2024-02-03T15:18:28.066Z,84634.47
2024-02-03T15:20:56.840Z,84635.28
2024-02-03T15:23:24.411Z,84648.28
2024-02-03T15:25:52.352Z,84647.25
2024-02-03T15:28:20.467Z,84641.00
2024-02-03T15:30:48.741Z,84636.53
2024-02-03T15:33:19.583Z,84634.69
2024-02-03T15:35:47.804Z,84633.53
2024-02-03T15:38:15.877Z,84635.72
2024-02-03T15:40:43.433Z,84632.41
2024-02-03T15:43:11.373Z,84639.81
2024-02-03T15:45:39.372Z,84632.13
2024-02-03T15:48:07.391Z,84643.19
2024-02-03T15:50:35.408Z,84646.84
2024-02-03T15:53:04.218Z,84602.72
2024-02-03T15:55:31.921Z,84650.47
2024-02-03T15:58:01.419Z,84655.59
2024-02-03T16:00:29.427Z,84643.03
2024-02-03T16:02:57.278Z,84639.72
2024-02-03T16:05:25.059Z,84649.28
2024-02-03T16:07:53.064Z,84646.34
2024-02-03T16:10:21.238Z,84639.34
2024-02-03T16:12:49.121Z,84637.84
2024-02-03T16:15:17.038Z,84645.94
2024-02-03T16:17:44.845Z,84640.78
2024-02-03T16:20:15.912Z,84652.22
2024-02-03T16:22:46.124Z,84656.66
2024-02-03T16:25:14.186Z,84644.19
2024-02-03T16:27:44.717Z,84664.41
2024-02-03T16:30:16.812Z,84664.41
2024-02-03T16:32:45.537Z,84657.03
2024-02-03T16:35:13.641Z,84664.78
2024-02-03T16:37:41.597Z,84660.03
2024-02-03T16:40:10.118Z,84672.94
2024-02-03T16:42:37.975Z,84657.16
2024-02-03T16:45:06.198Z,84670.78
2024-02-03T16:47:34.156Z,84666.38
2024-02-03T16:50:01.659Z,84664.56
2024-02-03T16:52:30.798Z,84671.22
2024-02-03T16:54:58.819Z,84668.66
2024-02-03T16:57:28.318Z,84670.88
2024-02-03T16:59:56.723Z,84664.63
2024-02-03T17:02:26.732Z,84664.28
2024-02-03T17:04:54.627Z,84660.97
2024-02-03T17:07:22.289Z,84667.22
2024-02-03T17:09:50.930Z,84675.66
2024-02-03T17:12:18.626Z,84677.47
2024-02-03T17:14:46.148Z,84675.25
2024-02-03T17:17:13.533Z,84669.34
2024-02-03T17:19:41.414Z,84665.31
2024-02-03T17:22:09.478Z,84666.78
2024-02-03T17:24:37.154Z,84666.41
2024-02-03T17:27:04.915Z,84664.19
2024-02-03T17:29:32.803Z,84654.66
2024-02-03T17:32:00.712Z,84656.47
2024-02-03T17:34:29.306Z,84662.69
2024-02-03T17:36:57.135Z,84657.16
2024-02-03T17:39:25.257Z,84657.53
2024-02-03T17:41:53.070Z,84665.63
2024-02-03T17:44:20.991Z,84667.13
2024-02-03T17:46:48.593Z,84678.59
2024-02-03T17:49:16.394Z,84677.53
2024-02-03T17:51:44.482Z,84679.78
2024-02-03T17:54:12.280Z,84683.09
2024-02-03T17:56:41.290Z,84674.59
2024-02-03T17:59:10.092Z,84683.38
2024-02-03T18:01:37.719Z,84671.88
2024-02-03T18:04:05.337Z,84671.13
2024-02-03T18:06:33.564Z,84669.31
2024-02-03T18:09:01.549Z,84666.81
2024-02-03T18:11:30.483Z,84672.00
2024-02-03T18:13:59.114Z,84663.56
2024-02-03T18:16:27.108Z,84665.41
2024-02-03T18:18:54.593Z,84656.59
2024-02-03T18:21:22.434Z,84656.59
2024-02-03T18:23:50.205Z,84648.13
2024-02-03T18:26:17.978Z,84638.53
2024-02-03T18:28:46.160Z,84650.25
2024-02-03T18:31:14.063Z,84660.22
2024-02-03T18:33:44.088Z,84652.50
2024-02-03T18:36:12.204Z,84666.53
2024-02-03T18:38:39.775Z,84672.78
2024-02-03T18:41:07.377Z,84654.06
2024-02-03T18:43:35.013Z,84658.81
2024-02-03T18:46:03.190Z,84647.41
2024-02-03T18:48:30.826Z,84646.28
2024-02-03T18:50:58.736Z,84645.53
2024-02-03T18:53:30.341Z,84645.91
2024-02-03T18:55:58.106Z,84651.06
2024-02-03T18:58:28.220Z,84644.44
2024-02-03T19:00:57.394Z,84643.31
2024-02-03T19:03:25.812Z,84642.56
2024-02-03T19:05:53.166Z,84642.25
2024-02-03T19:08:20.762Z,84628.28
2024-02-03T19:10:49.354Z,84621.66
2024-02-03T19:13:17.706Z,84625.66
2024-02-03T19:15:45.872Z,84627.47
2024-02-03T19:18:13.708Z,84627.09
2024-02-03T19:20:41.607Z,84626.38
2024-02-03T19:23:09.932Z,84626.00
2024-02-03T19:25:38.087Z,84620.84
2024-02-03T19:28:05.756Z,84620.13
2024-02-03T19:30:33.709Z,84617.53
2024-02-03T19:33:02.117Z,84633.06
2024-02-03T19:35:29.719Z,84621.66
2024-02-03T19:38:02.130Z,84631.88
2024-02-03T19:40:29.706Z,84620.41
2024-02-03T19:42:57.335Z,84601.00
2024-02-03T19:45:25.088Z,84618.66
2024-02-03T19:47:52.914Z,84621.59
2024-02-03T19:50:22.414Z,84616.03
2024-02-03T19:52:51.838Z,84616.03
2024-02-03T19:55:20.505Z,84612.00
2024-02-03T19:57:49.021Z,84606.84
2024-02-03T20:00:17.832Z,84606.53
2024-02-03T20:02:45.589Z,84608.72
2024-02-03T20:05:14.102Z,84606.53
2024-02-03T20:07:42.339Z,84598.41
2024-02-03T20:10:10.963Z,84598.75
2024-02-03T20:12:40.565Z,84598.44
2024-02-03T20:15:08.898Z,84593.66
2024-02-03T20:17:38.249Z,84577.84
2024-02-03T20:20:06.820Z,84587.84
2024-02-03T20:22:34.768Z,84579.78
2024-02-03T20:25:02.958Z,84587.50
2024-02-03T20:27:30.742Z,84589.72
2024-02-03T20:29:58.208Z,84589.38
2024-02-03T20:32:26.177Z,84587.16
2024-02-03T20:34:53.833Z,84595.56
2024-02-03T20:37:21.789Z,84599.97
2024-02-03T20:39:49.673Z,84593.31
2024-02-03T20:42:19.407Z,84580.72
2024-02-03T20:44:47.014Z,84579.94
2024-02-03T20:47:14.895Z,84578.44
2024-02-03T20:49:42.586Z,84589.38
2024-02-03T20:52:10.826Z,84586.00
2024-02-03T20:54:38.888Z,84581.91
2024-02-03T20:57:06.672Z,84523.53
2024-02-03T20:59:34.578Z,84581.84
2024-02-03T21:02:02.619Z,84594.41
2024-02-03T21:04:30.521Z,84594.81
2024-02-03T21:06:59.618Z,84594.44
2024-02-03T21:09:28.003Z,84592.97
2024-02-03T21:11:55.891Z,84597.78
2024-02-03T21:14:24.089Z,84588.22
2024-02-03T21:16:52.277Z,84582.69
2024-02-03T21:19:20.049Z,84588.97
2024-02-03T21:21:47.855Z,84588.22
2024-02-03T21:24:16.222Z,84578.97
2024-02-03T21:26:50.756Z,84574.53
2024-02-03T21:29:18.457Z,84573.81
2024-02-03T21:31:46.017Z,84576.44
2024-02-03T21:34:13.698Z,84576.09
2024-02-03T21:36:41.458Z,84571.59
2024-02-03T21:39:11.892Z,84565.31
2024-02-03T21:41:40.491Z,84569.03
2024-02-03T21:44:08.579Z,84571.72
2024-02-03T21:46:36.384Z,84559.59
2024-02-03T21:49:04.448Z,84562.13
2024-02-03T21:51:32.124Z,84559.13
2024-02-03T21:54:00.082Z,84557.25
2024-02-03T21:56:27.678Z,84563.16
2024-02-03T21:58:55.319Z,84556.53
2024-02-03T22:01:23.592Z,84559.09
2024-02-03T22:03:54.018Z,84555.38
2024-02-03T22:06:25.720Z,84550.22
2024-02-03T22:08:53.532Z,84554.59
2024-02-03T22:11:21.362Z,84531.81
2024-02-03T22:13:48.910Z,84558.63
2024-02-03T22:16:16.243Z,84562.69
2024-02-03T22:18:43.969Z,84563.13
2024-02-03T22:21:11.943Z,84560.53
2024-02-03T22:23:40.005Z,84555.38
2024-02-03T22:26:07.626Z,84551.28
2024-02-03T22:28:35.141Z,84543.16
2024-02-03T22:31:03.266Z,84544.25
2024-02-03T22:33:31.391Z,84545.75
2024-02-03T22:35:58.989Z,84538.00
2024-02-03T22:38:27.022Z,84544.66
2024-02-03T22:40:54.959Z,84531.81
2024-02-03T22:43:22.416Z,84535.56
2024-02-03T22:45:50.334Z,84535.50
2024-02-03T22:48:18.578Z,84516.34
2024-02-03T22:50:46.285Z,84520.00
2024-02-03T22:53:13.967Z,84517.81
2024-02-03T22:55:41.608Z,84515.22
2024-02-03T22:58:09.388Z,84517.78
2024-02-03T23:00:37.737Z,84519.22
2024-02-03T23:03:06.975Z,84515.13
2024-02-03T23:05:34.716Z,84527.75
2024-02-03T23:08:02.490Z,84513.84
2024-02-03T23:10:30.234Z,84516.38
2024-02-03T23:12:58.102Z,84519.31
2024-02-03T23:15:25.874Z,84511.22
2024-02-03T23:17:54.655Z,84516.31
2024-02-03T23:20:23.919Z,84501.94
2024-02-03T23:22:51.537Z,84508.19
2024-02-03T23:25:19.354Z,84513.34
2024-02-03T23:27:46.962Z,84504.16
2024-02-03T23:30:14.700Z,84497.91
2024-02-03T23:32:42.637Z,84482.84
2024-02-03T23:35:10.746Z,84489.13
2024-02-03T23:37:38.410Z,84492.22
2024-02-03T23:40:08.406Z,84499.66
2024-02-03T23:42:36.428Z,84496.06
2024-02-03T23:45:04.762Z,84493.94
2024-02-03T23:47:33.283Z,84496.84
2024-02-03T23:50:00.810Z,84499.78
2024-02-03T23:52:28.604Z,84493.59
2024-02-03T23:54:56.272Z,84487.00
2024-02-03T23:57:24.074Z,84487.41
2024-02-03T23:59:51.890Z,84490.34
